Time;durP1;ratioP1;P1;durP2;ratioP2;P2;SDS_P1;SDS_P2;PMS_P1;PMS_P2;Temp;Humidity;BMP_temperature;BMP_pressure;BME280_temperature;BME280_humidity;BME280_pressure;Samples;Min_cycle;Max_cycle;Signal;HPM_P1;HPM_P2
2024/04/17 00:01:19;;;;;;;0.50;0.50;;;;;;;;;;5449267;26;20270;-46
2024/04/17 00:03:45;;;;;;;0.52;0.50;;;;;;;;;;5455429;26;20232;-47
2024/04/17 00:06:11;;;;;;;0.95;0.73;;;;;;;;;;5456686;26;20270;-46
2024/04/17 00:08:37;;;;;;;1.80;0.60;;;;;;;;;;5456414;26;20223;-46
2024/04/17 00:11:03;;;;;;;0.50;0.50;;;;;;;;;;5446308;26;20254;-47
2024/04/17 00:13:30;;;;;;;0.90;0.70;;;;;;;;;;5448968;26;20224;-47
2024/04/17 00:15:58;;;;;;;0.65;0.60;;;;;;;;;;5452555;26;20228;-47
2024/04/17 00:18:24;;;;;;;1.38;0.70;;;;;;;;;;5448664;26;20463;-47
2024/04/17 00:20:50;;;;;;;0.65;0.65;;;;;;;;;;5455206;26;20674;-46
2024/04/17 00:23:16;;;;;;;0.50;0.50;;;;;;;;;;5453796;26;20224;-46
2024/04/17 00:25:42;;;;;;;0.47;0.40;;;;;;;;;;5449072;26;20309;-46
2024/04/17 00:28:08;;;;;;;0.50;0.50;;;;;;;;;;5442104;26;20224;-47
2024/04/17 00:30:34;;;;;;;0.50;0.50;;;;;;;;;;5440835;26;20223;-47
2024/04/17 00:33:00;;;;;;;0.70;0.65;;;;;;;;;;5455467;26;20228;-47
2024/04/17 00:35:26;;;;;;;0.57;0.50;;;;;;;;;;5456181;26;20266;-47
2024/04/17 00:37:52;;;;;;;0.70;0.47;;;;;;;;;;5451818;26;20438;-46
2024/04/17 00:40:17;;;;;;;0.70;0.60;;;;;;;;;;5456146;26;20320;-46
2024/04/17 00:42:43;;;;;;;0.68;0.60;;;;;;;;;;5455536;26;20228;-46
2024/04/17 00:45:09;;;;;;;0.50;0.50;;;;;;;;;;5449840;26;20532;-46
2024/04/17 00:47:35;;;;;;;0.57;0.57;;;;;;;;;;5456782;26;20683;-47
2024/04/17 00:50:01;;;;;;;0.65;0.55;;;;;;;;;;5456413;26;20270;-47
2024/04/17 00:52:27;;;;;;;1.67;0.60;;;;;;;;;;5447156;26;20262;-46
2024/04/17 00:54:53;;;;;;;1.15;0.80;;;;;;;;;;5445842;26;20223;-47
2024/04/17 00:57:20;;;;;;;0.75;0.60;;;;;;;;;;5457317;26;20642;-47
2024/04/17 00:59:46;;;;;;;0.68;0.50;;;;;;;;;;5456954;26;20291;-47
2024/04/17 01:02:14;;;;;;;0.65;0.50;;;;;;;;;;5442814;26;20231;-46
2024/04/17 01:04:41;;;;;;;0.43;0.43;;;;;;;;;;5455867;26;20219;-47
2024/04/17 01:07:07;;;;;;;0.50;0.50;;;;;;;;;;5456059;26;20302;-46
2024/04/17 01:09:32;;;;;;;0.73;0.70;;;;;;;;;;5454975;26;20286;-46
2024/04/17 01:11:58;;;;;;;0.65;0.65;;;;;;;;;;5450054;26;20724;-47
2024/04/17 01:14:24;;;;;;;0.40;0.40;;;;;;;;;;5456288;26;20223;-46
2024/04/17 01:16:50;;;;;;;0.73;0.50;;;;;;;;;;5457047;26;20733;-46
2024/04/17 01:19:17;;;;;;;0.60;0.60;;;;;;;;;;5448102;26;20300;-47
2024/04/17 01:21:43;;;;;;;0.50;0.50;;;;;;;;;;5441322;26;20243;-46
2024/04/17 01:24:09;;;;;;;0.47;0.47;;;;;;;;;;5437392;26;20509;-46
2024/04/17 01:26:35;;;;;;;0.60;0.50;;;;;;;;;;5445114;26;20225;-47
2024/04/17 01:29:01;;;;;;;0.40;0.40;;;;;;;;;;5453039;26;20269;-47
2024/04/17 01:31:27;;;;;;;0.47;0.47;;;;;;;;;;5449688;26;20235;-46
2024/04/17 01:33:53;;;;;;;0.50;0.50;;;;;;;;;;5442973;26;20219;-47
2024/04/17 01:36:18;;;;;;;0.40;0.40;;;;;;;;;;5449087;26;20266;-46
2024/04/17 01:38:45;;;;;;;0.50;0.50;;;;;;;;;;5453635;26;20957;-46
2024/04/17 01:41:11;;;;;;;0.50;0.50;;;;;;;;;;5454083;26;20232;-46
2024/04/17 01:43:37;;;;;;;0.40;0.40;;;;;;;;;;5450458;26;20335;-47
2024/04/17 01:46:03;;;;;;;0.70;0.57;;;;;;;;;;5450864;26;20227;-47
2024/04/17 01:48:28;;;;;;;0.55;0.55;;;;;;;;;;5456100;26;20271;-47
2024/04/17 01:50:54;;;;;;;0.95;0.50;;;;;;;;;;5452653;26;20439;-46
2024/04/17 01:53:20;;;;;;;0.40;0.40;;;;;;;;;;5448161;26;20331;-46
2024/04/17 01:55:46;;;;;;;1.17;0.60;;;;;;;;;;5455476;26;20245;-46
2024/04/17 01:58:12;;;;;;;0.52;0.32;;;;;;;;;;5453048;26;20352;-46
2024/04/17 02:00:38;;;;;;;0.38;0.35;;;;;;;;;;5446669;26;20228;-46
2024/04/17 02:03:04;;;;;;;0.50;0.45;;;;;;;;;;5449644;26;20223;-47
2024/04/17 02:05:30;;;;;;;1.45;0.50;;;;;;;;;;5448778;26;20269;-47
2024/04/17 02:07:56;;;;;;;0.40;0.40;;;;;;;;;;5443514;26;20438;-47
2024/04/17 02:10:22;;;;;;;0.60;0.50;;;;;;;;;;5449395;26;20299;-47
2024/04/17 02:12:48;;;;;;;0.32;0.32;;;;;;;;;;5454355;26;20232;-47
2024/04/17 02:15:14;;;;;;;0.50;0.45;;;;;;;;;;5455275;26;20255;-46
2024/04/17 02:17:40;;;;;;;0.50;0.43;;;;;;;;;;5442259;26;20228;-47
2024/04/17 02:20:07;;;;;;;0.65;0.43;;;;;;;;;;5451215;26;20262;-46
2024/04/17 02:22:33;;;;;;;0.50;0.40;;;;;;;;;;5454774;26;20224;-46
2024/04/17 02:24:59;;;;;;;0.40;0.40;;;;;;;;;;5441439;26;20224;-46
2024/04/17 02:27:25;;;;;;;0.38;0.38;;;;;;;;;;5449215;26;20384;-47
2024/04/17 02:29:52;;;;;;;0.98;0.50;;;;;;;;;;5446664;26;20231;-47
2024/04/17 02:32:18;;;;;;;0.38;0.35;;;;;;;;;;5439721;26;20500;-46
2024/04/17 02:34:44;;;;;;;0.40;0.40;;;;;;;;;;5452908;26;20266;-46
2024/04/17 02:37:10;;;;;;;0.50;0.40;;;;;;;;;;5455489;26;20287;-46
2024/04/17 02:39:36;;;;;;;0.50;0.50;;;;;;;;;;5434728;26;20271;-46
2024/04/17 02:42:02;;;;;;;0.82;0.50;;;;;;;;;;5452113;26;20283;-46
2024/04/17 02:44:27;;;;;;;1.33;0.32;;;;;;;;;;5444446;26;20513;-46
2024/04/17 02:46:53;;;;;;;0.30;0.30;;;;;;;;;;5434411;26;20299;-46
2024/04/17 02:49:19;;;;;;;0.45;0.45;;;;;;;;;;5439427;26;20224;-46
2024/04/17 02:51:46;;;;;;;0.40;0.40;;;;;;;;;;5449295;26;20371;-46
2024/04/17 02:54:12;;;;;;;0.68;0.55;;;;;;;;;;5449986;26;20266;-46
2024/04/17 02:56:38;;;;;;;0.52;0.50;;;;;;;;;;5454556;26;20529;-47
2024/04/17 02:59:03;;;;;;;0.55;0.55;;;;;;;;;;5453929;26;20239;-46
2024/04/17 03:01:31;;;;;;;0.52;0.52;;;;;;;;;;5439761;26;21957;-46
2024/04/17 03:03:57;;;;;;;1.25;0.70;;;;;;;;;;5449636;26;20227;-46
2024/04/17 03:06:23;;;;;;;0.30;0.30;;;;;;;;;;5449094;26;20320;-46
2024/04/17 03:08:49;;;;;;;0.30;0.30;;;;;;;;;;5452068;26;20315;-46
2024/04/17 03:11:15;;;;;;;1.45;0.40;;;;;;;;;;5447318;26;20247;-47
2024/04/17 03:13:41;;;;;;;0.65;0.60;;;;;;;;;;5452751;26;20509;-47
2024/04/17 03:16:07;;;;;;;0.40;0.40;;;;;;;;;;5448773;26;20227;-47
2024/04/17 03:18:33;;;;;;;0.40;0.40;;;;;;;;;;5434528;26;20295;-47
2024/04/17 03:21:05;;;;;;;0.50;0.20;;;;;;;;;;5443969;26;20261;-46
2024/04/17 03:23:31;;;;;;;0.30;0.30;;;;;;;;;;5450237;26;20292;-40
2024/04/17 03:25:57;;;;;;;0.50;0.50;;;;;;;;;;5444803;26;20463;-37
2024/04/17 03:28:23;;;;;;;2.15;0.52;;;;;;;;;;5453127;26;20224;-38
2024/04/17 03:30:49;;;;;;;0.98;0.60;;;;;;;;;;5445802;26;20225;-45
2024/04/17 03:33:15;;;;;;;0.47;0.47;;;;;;;;;;5432603;26;20716;-40
2024/04/17 03:35:41;;;;;;;1.13;0.43;;;;;;;;;;5442903;26;20266;-37
2024/04/17 03:38:07;;;;;;;2.30;0.70;;;;;;;;;;5452044;26;20227;-37
2024/04/17 03:40:33;;;;;;;1.20;0.63;;;;;;;;;;5445843;26;20274;-36
2024/04/17 03:42:59;;;;;;;4.28;0.50;;;;;;;;;;5445757;26;20235;-36
2024/04/17 03:45:25;;;;;;;1.73;0.57;;;;;;;;;;5454182;26;20219;-36
2024/04/17 03:47:51;;;;;;;1.48;0.50;;;;;;;;;;5453966;26;20439;-36
2024/04/17 03:50:17;;;;;;;1.55;0.65;;;;;;;;;;5445235;26;20223;-36
2024/04/17 03:52:42;;;;;;;1.00;0.43;;;;;;;;;;5443698;26;20257;-37
2024/04/17 03:55:08;;;;;;;2.83;0.60;;;;;;;;;;5450337;26;20228;-36
2024/04/17 03:57:34;;;;;;;2.95;1.00;;;;;;;;;;5452205;26;20271;-36
2024/04/17 04:00:00;;;;;;;8.80;1.80;;;;;;;;;;5445396;26;20485;-39
2024/04/17 04:02:26;;;;;;;12.82;1.83;;;;;;;;;;5454164;26;20220;-40
2024/04/17 04:04:52;;;;;;;12.18;1.63;;;;;;;;;;5456518;26;20266;-37
2024/04/17 04:07:18;;;;;;;7.55;2.05;;;;;;;;;;5457287;26;20286;-46
2024/04/17 04:09:44;;;;;;;10.77;1.20;;;;;;;;;;5435909;26;20263;-54
2024/04/17 04:12:10;;;;;;;10.82;1.77;;;;;;;;;;5455308;26;20227;-39
2024/04/17 04:14:35;;;;;;;3.95;1.42;;;;;;;;;;5433931;26;20224;-46
2024/04/17 04:17:01;;;;;;;2.95;1.50;;;;;;;;;;5452140;26;20282;-46
2024/04/17 04:19:27;;;;;;;11.48;1.60;;;;;;;;;;5454033;26;20298;-44
2024/04/17 04:21:53;;;;;;;5.78;1.30;;;;;;;;;;5455891;26;20286;-49
2024/04/17 04:24:19;;;;;;;3.90;1.63;;;;;;;;;;5452549;26;20220;-49
2024/04/17 04:26:45;;;;;;;15.57;1.80;;;;;;;;;;5444948;26;20254;-50
2024/04/17 04:29:11;;;;;;;8.10;2.00;;;;;;;;;;5440930;26;20235;-36
2024/04/17 04:31:37;;;;;;;4.28;1.17;;;;;;;;;;5457101;26;20219;-48
2024/04/17 04:34:03;;;;;;;8.88;1.58;;;;;;;;;;5455209;26;20235;-43
2024/04/17 04:36:29;;;;;;;6.80;2.05;;;;;;;;;;5455563;26;20223;-44
2024/04/17 04:38:54;;;;;;;5.80;1.50;;;;;;;;;;5448467;26;20283;-42
2024/04/17 04:41:20;;;;;;;3.83;1.25;;;;;;;;;;5450410;26;20239;-42
2024/04/17 04:43:46;;;;;;;4.57;1.20;;;;;;;;;;5447597;26;20271;-43
2024/04/17 04:46:12;;;;;;;9.10;1.35;;;;;;;;;;5456232;26;20232;-42
2024/04/17 04:48:38;;;;;;;5.82;1.15;;;;;;;;;;5455657;26;20606;-43
2024/04/17 04:51:04;;;;;;;4.82;1.35;;;;;;;;;;5438684;26;20229;-43
2024/04/17 04:53:30;;;;;;;7.63;1.30;;;;;;;;;;5434028;26;20650;-43
2024/04/17 04:55:59;;;;;;;6.28;1.42;;;;;;;;;;5454333;26;20223;-42
2024/04/17 04:58:25;;;;;;;7.55;1.45;;;;;;;;;;5453459;26;20290;-42
2024/04/17 05:00:52;;;;;;;5.32;1.02;;;;;;;;;;5441997;26;20231;-43
2024/04/17 05:03:18;;;;;;;3.38;1.42;;;;;;;;;;5454326;26;20223;-43
2024/04/17 05:05:44;;;;;;;4.75;1.17;;;;;;;;;;5451369;26;20474;-43
2024/04/17 05:08:10;;;;;;;2.88;1.23;;;;;;;;;;5452699;26;20269;-42
2024/04/17 05:10:36;;;;;;;2.92;1.00;;;;;;;;;;5439499;26;20228;-43
2024/04/17 05:13:02;;;;;;;3.35;0.70;;;;;;;;;;5451368;26;20284;-42
2024/04/17 05:15:28;;;;;;;2.83;0.90;;;;;;;;;;5456098;26;20239;-42
2024/04/17 05:17:54;;;;;;;2.05;1.10;;;;;;;;;;5441481;26;20228;-43
2024/04/17 05:20:20;;;;;;;2.28;0.80;;;;;;;;;;5430155;26;20294;-42
2024/04/17 05:22:46;;;;;;;3.20;0.90;;;;;;;;;;5439472;26;20278;-42
2024/04/17 05:25:12;;;;;;;1.50;1.25;;;;;;;;;;5445859;26;20614;-43
2024/04/17 05:27:38;;;;;;;3.40;1.00;;;;;;;;;;5454449;26;20270;-43
2024/04/17 05:30:09;;;;;;;1.75;0.80;;;;;;;;;;5451508;26;20258;-43
2024/04/17 05:32:34;;;;;;;5.70;1.85;;;;;;;;;;5438638;26;20321;-44
2024/04/17 05:35:00;;;;;;;3.05;0.93;;;;;;;;;;5442505;26;20220;-43
2024/04/17 05:37:26;;;;;;;2.75;0.95;;;;;;;;;;5455680;26;20274;-43
2024/04/17 05:39:52;;;;;;;4.85;0.60;;;;;;;;;;5453541;26;20227;-43
2024/04/17 05:42:18;;;;;;;1.98;0.90;;;;;;;;;;5446762;26;20284;-42
2024/04/17 05:44:44;;;;;;;1.63;0.65;;;;;;;;;;5448511;26;20235;-43
2024/04/17 05:47:10;;;;;;;1.92;0.80;;;;;;;;;;5428484;26;20231;-42
2024/04/17 05:49:36;;;;;;;2.38;0.90;;;;;;;;;;5444526;26;20504;-43
2024/04/17 05:52:02;;;;;;;1.95;0.80;;;;;;;;;;5444692;26;20235;-43
2024/04/17 05:54:28;;;;;;;2.47;0.90;;;;;;;;;;5437084;26;20236;-43
2024/04/17 05:56:54;;;;;;;1.58;0.82;;;;;;;;;;5440655;26;20287;-43
2024/04/17 05:59:20;;;;;;;3.17;0.80;;;;;;;;;;5438958;26;20248;-42
2024/04/17 06:01:46;;;;;;;2.05;0.63;;;;;;;;;;5436318;26;20219;-43
2024/04/17 06:04:12;;;;;;;1.75;0.52;;;;;;;;;;5430601;26;20257;-43
2024/04/17 06:06:41;;;;;;;0.70;0.70;;;;;;;;;;5444871;26;20239;-42
2024/04/17 06:09:07;;;;;;;1.55;0.75;;;;;;;;;;5449281;26;20296;-43
2024/04/17 06:11:32;;;;;;;1.75;0.82;;;;;;;;;;5444501;26;20307;-43
2024/04/17 06:13:58;;;;;;;1.30;0.60;;;;;;;;;;5426641;26;20228;-42
2024/04/17 06:16:24;;;;;;;2.88;1.00;;;;;;;;;;5450310;26;20302;-43
2024/04/17 06:18:50;;;;;;;1.23;0.60;;;;;;;;;;5444198;26;21007;-43
2024/04/17 06:21:16;;;;;;;2.33;0.82;;;;;;;;;;5449836;26;20224;-43
2024/04/17 06:23:42;;;;;;;1.65;0.75;;;;;;;;;;5445402;26;20312;-43
2024/04/17 06:26:08;;;;;;;0.45;0.45;;;;;;;;;;5440953;26;20279;-43
2024/04/17 06:28:34;;;;;;;2.55;0.73;;;;;;;;;;5437866;26;20240;-43
2024/04/17 06:31:00;;;;;;;1.95;0.82;;;;;;;;;;5435511;26;20228;-43
2024/04/17 06:33:26;;;;;;;0.63;0.50;;;;;;;;;;5448395;26;20286;-43
2024/04/17 06:35:51;;;;;;;1.60;0.70;;;;;;;;;;5440141;26;20227;-43
2024/04/17 06:38:17;;;;;;;0.52;0.50;;;;;;;;;;5446885;26;20235;-42
2024/04/17 06:40:43;;;;;;;2.33;0.80;;;;;;;;;;5448309;26;20482;-42
2024/04/17 06:43:09;;;;;;;1.10;0.60;;;;;;;;;;5441226;26;20267;-43
2024/04/17 06:45:36;;;;;;;0.63;0.60;;;;;;;;;;5454390;26;20235;-43
2024/04/17 06:48:04;;;;;;;1.33;0.60;;;;;;;;;;5436081;26;20283;-42
2024/04/17 06:50:30;;;;;;;0.68;0.60;;;;;;;;;;5441925;26;20270;-43
2024/04/17 06:52:56;;;;;;;0.70;0.68;;;;;;;;;;5440684;26;20235;-42
2024/04/17 06:55:22;;;;;;;0.82;0.60;;;;;;;;;;5443791;26;20648;-43
2024/04/17 06:57:48;;;;;;;1.17;0.80;;;;;;;;;;5438558;26;20240;-42
2024/04/17 07:00:14;;;;;;;0.40;0.38;;;;;;;;;;5442509;26;20235;-43
2024/04/17 07:02:39;;;;;;;1.60;0.65;;;;;;;;;;5438345;26;20228;-42
2024/04/17 07:05:06;;;;;;;1.58;0.60;;;;;;;;;;5443324;26;20234;-43
2024/04/17 07:07:31;;;;;;;0.82;0.52;;;;;;;;;;5443763;26;20229;-43
2024/04/17 07:09:57;;;;;;;0.98;0.60;;;;;;;;;;5441924;26;20591;-43
2024/04/17 07:12:23;;;;;;;2.15;0.50;;;;;;;;;;5442585;26;20291;-42
2024/04/17 07:14:49;;;;;;;0.45;0.38;;;;;;;;;;5438193;26;20228;-43
2024/04/17 07:17:15;;;;;;;0.73;0.50;;;;;;;;;;5438972;26;20278;-43
2024/04/17 07:19:41;;;;;;;0.50;0.30;;;;;;;;;;5433446;26;20238;-42
2024/04/17 07:22:07;;;;;;;0.65;0.47;;;;;;;;;;5438059;26;20224;-42
2024/04/17 07:24:33;;;;;;;0.43;0.40;;;;;;;;;;5441487;26;20224;-43
2024/04/17 07:26:58;;;;;;;1.30;0.77;;;;;;;;;;5441131;26;20337;-42
2024/04/17 07:29:24;;;;;;;1.52;0.47;;;;;;;;;;5437612;26;20232;-43
2024/04/17 07:31:50;;;;;;;0.60;0.40;;;;;;;;;;5434303;26;20319;-43
2024/04/17 07:34:16;;;;;;;1.25;0.57;;;;;;;;;;5434196;26;20239;-43
2024/04/17 07:36:42;;;;;;;0.68;0.43;;;;;;;;;;5438186;26;20319;-42
2024/04/17 07:39:10;;;;;;;1.05;0.52;;;;;;;;;;5438090;26;20438;-42
2024/04/17 07:41:36;;;;;;;1.17;0.70;;;;;;;;;;5433509;26;20271;-42
2024/04/17 07:44:02;;;;;;;1.80;0.57;;;;;;;;;;5435753;26;20232;-47
2024/04/17 07:46:28;;;;;;;1.23;0.55;;;;;;;;;;5438358;26;20225;-43
2024/04/17 07:48:55;;;;;;;0.52;0.47;;;;;;;;;;5440484;26;21635;-43
2024/04/17 07:51:21;;;;;;;1.55;0.60;;;;;;;;;;5445971;26;20227;-43
2024/04/17 07:53:47;;;;;;;0.60;0.50;;;;;;;;;;5441933;26;20473;-43
2024/04/17 07:56:13;;;;;;;0.47;0.43;;;;;;;;;;5436161;26;20243;-42
2024/04/17 07:58:38;;;;;;;0.85;0.40;;;;;;;;;;5435482;26;20266;-43
2024/04/17 08:01:05;;;;;;;1.15;0.55;;;;;;;;;;5444920;26;20271;-42
2024/04/17 08:03:31;;;;;;;0.75;0.50;;;;;;;;;;5448144;26;20274;-42
2024/04/17 08:05:57;;;;;;;0.45;0.43;;;;;;;;;;5440858;26;20233;-42
2024/04/17 08:08:23;;;;;;;0.73;0.60;;;;;;;;;;5446634;26;20275;-42
2024/04/17 08:10:49;;;;;;;0.40;0.40;;;;;;;;;;5437616;26;20229;-43
2024/04/17 08:13:16;;;;;;;0.40;0.40;;;;;;;;;;5452703;26;20231;-42
2024/04/17 08:15:42;;;;;;;0.52;0.52;;;;;;;;;;5447480;26;20278;-43
2024/04/17 08:18:08;;;;;;;1.55;0.50;;;;;;;;;;5442453;26;20227;-43
2024/04/17 08:20:34;;;;;;;0.68;0.50;;;;;;;;;;5432265;26;20224;-43
2024/04/17 08:23:00;;;;;;;0.40;0.40;;;;;;;;;;5443365;26;20650;-42
2024/04/17 08:25:26;;;;;;;0.98;0.68;;;;;;;;;;5449127;26;20594;-42
2024/04/17 08:27:52;;;;;;;1.83;0.60;;;;;;;;;;5432078;26;20236;-43
2024/04/17 08:30:18;;;;;;;0.50;0.40;;;;;;;;;;5434304;26;20270;-43
2024/04/17 08:32:45;;;;;;;0.60;0.30;;;;;;;;;;5447279;26;20706;-42
2024/04/17 08:35:11;;;;;;;0.43;0.43;;;;;;;;;;5453697;26;20223;-43
2024/04/17 08:37:37;;;;;;;0.47;0.40;;;;;;;;;;5451299;26;20488;-43
2024/04/17 08:40:04;;;;;;;1.35;0.60;;;;;;;;;;5432748;26;20293;-42
2024/04/17 08:42:31;;;;;;;0.32;0.30;;;;;;;;;;5451268;26;20308;-43
2024/04/17 08:44:57;;;;;;;0.95;0.40;;;;;;;;;;5449437;26;20227;-42
2024/04/17 08:47:24;;;;;;;0.75;0.50;;;;;;;;;;5454951;26;20261;-42
2024/04/17 08:49:51;;;;;;;0.40;0.40;;;;;;;;;;5450056;26;20235;-44
2024/04/17 08:52:19;;;;;;;0.80;0.47;;;;;;;;;;5443773;26;20290;-43
2024/04/17 08:54:46;;;;;;;0.40;0.40;;;;;;;;;;5454821;26;20223;-43
2024/04/17 08:57:12;;;;;;;0.40;0.40;;;;;;;;;;5441663;26;20231;-43
2024/04/17 08:59:38;;;;;;;0.50;0.50;;;;;;;;;;5431296;26;20287;-43
2024/04/17 09:02:12;;;;;;;0.68;0.43;;;;;;;;;;5449002;26;20223;-43
2024/04/17 09:04:38;;;;;;;0.90;0.50;;;;;;;;;;5444245;26;20268;-42
2024/04/17 09:07:04;;;;;;;0.93;0.40;;;;;;;;;;5434939;26;20318;-43
2024/04/17 09:09:31;;;;;;;0.70;0.60;;;;;;;;;;5436010;26;20248;-42
2024/04/17 09:11:57;;;;;;;0.50;0.47;;;;;;;;;;5438061;26;20248;-43
2024/04/17 09:14:23;;;;;;;0.95;0.50;;;;;;;;;;5437425;26;20244;-43
2024/04/17 09:16:49;;;;;;;0.82;0.63;;;;;;;;;;5448201;26;20329;-43
2024/04/17 09:19:14;;;;;;;0.38;0.38;;;;;;;;;;5455211;26;20324;-43
2024/04/17 09:21:40;;;;;;;0.85;0.70;;;;;;;;;;5452116;26;20228;-43
2024/04/17 09:24:06;;;;;;;1.55;0.55;;;;;;;;;;5443446;26;20611;-42
2024/04/17 09:26:32;;;;;;;0.60;0.60;;;;;;;;;;5440951;26;20595;-43
2024/04/17 09:28:58;;;;;;;0.57;0.52;;;;;;;;;;5447925;26;20321;-43
2024/04/17 09:31:24;;;;;;;0.75;0.50;;;;;;;;;;5446658;26;20335;-43
2024/04/17 09:33:51;;;;;;;0.77;0.60;;;;;;;;;;5446641;26;20224;-43
2024/04/17 09:36:17;;;;;;;0.65;0.50;;;;;;;;;;5437526;26;20316;-43
2024/04/17 09:38:43;;;;;;;1.20;0.60;;;;;;;;;;5438597;26;20490;-43
2024/04/17 09:41:09;;;;;;;0.40;0.40;;;;;;;;;;5433035;26;20316;-43
2024/04/17 09:43:42;;;;;;;0.70;0.52;;;;;;;;;;5436489;26;20311;-43
2024/04/17 09:46:08;;;;;;;1.10;0.60;;;;;;;;;;5439336;26;20231;-43
2024/04/17 09:48:36;;;;;;;0.50;0.50;;;;;;;;;;5443038;26;20240;-43
2024/04/17 09:51:03;;;;;;;0.73;0.50;;;;;;;;;;5435218;26;20225;-43
2024/04/17 09:53:34;;;;;;;0.73;0.70;;;;;;;;;;5455569;26;20295;-42
2024/04/17 09:56:00;;;;;;;0.90;0.63;;;;;;;;;;5449696;26;20235;-43
2024/04/17 09:58:32;;;;;;;0.82;0.60;;;;;;;;;;5433496;26;20295;-43
2024/04/17 10:00:58;;;;;;;0.90;0.63;;;;;;;;;;5446188;26;20300;-43
2024/04/17 10:03:24;;;;;;;0.50;0.50;;;;;;;;;;5455250;26;20264;-43
2024/04/17 10:05:51;;;;;;;0.90;0.63;;;;;;;;;;5446039;26;20227;-42
2024/04/17 10:08:17;;;;;;;0.65;0.52;;;;;;;;;;5448554;26;20236;-43
2024/04/17 10:10:43;;;;;;;0.95;0.68;;;;;;;;;;5434792;26;20228;-43
2024/04/17 10:13:10;;;;;;;1.20;0.70;;;;;;;;;;5447109;26;20267;-42
2024/04/17 10:15:36;;;;;;;1.80;0.60;;;;;;;;;;5441052;26;20270;-43
2024/04/17 10:18:03;;;;;;;2.05;0.65;;;;;;;;;;5442849;26;20591;-42
2024/04/17 10:20:29;;;;;;;0.88;0.60;;;;;;;;;;5445713;26;20285;-43
2024/04/17 10:23:06;;;;;;;0.70;0.60;;;;;;;;;;5434469;26;20711;-43
2024/04/17 10:25:32;;;;;;;2.83;0.80;;;;;;;;;;5447303;26;20267;-43
2024/04/17 10:28:04;;;;;;;0.65;0.65;;;;;;;;;;5441057;26;20229;-42
2024/04/17 10:30:35;;;;;;;1.42;0.90;;;;;;;;;;5447417;26;20232;-42
2024/04/17 10:33:01;;;;;;;1.13;0.80;;;;;;;;;;5435438;26;20650;-43
2024/04/17 10:35:29;;;;;;;1.73;0.80;;;;;;;;;;5444374;26;20243;-43
2024/04/17 10:37:56;;;;;;;2.38;0.80;;;;;;;;;;5441595;26;20228;-42
2024/04/17 10:40:23;;;;;;;1.75;0.70;;;;;;;;;;5439027;26;20278;-43
2024/04/17 10:42:51;;;;;;;0.65;0.65;;;;;;;;;;5442739;26;20384;-43
2024/04/17 10:45:17;;;;;;;3.60;1.02;;;;;;;;;;5436538;26;20227;-43
2024/04/17 10:47:50;;;;;;;2.50;0.90;;;;;;;;;;5443240;26;20623;-42
2024/04/17 10:50:16;;;;;;;2.38;0.95;;;;;;;;;;5451743;26;20274;-43
2024/04/17 10:52:43;;;;;;;1.08;0.80;;;;;;;;;;5446765;26;21225;-43
2024/04/17 10:55:10;;;;;;;0.80;0.70;;;;;;;;;;5447895;26;20584;-43
2024/04/17 10:57:36;;;;;;;1.75;0.88;;;;;;;;;;5437706;26;20321;-42
2024/04/17 11:00:03;;;;;;;1.80;0.88;;;;;;;;;;5449753;26;20606;-42
2024/04/17 11:02:29;;;;;;;2.40;1.13;;;;;;;;;;5440408;26;20243;-43
2024/04/17 11:04:55;;;;;;;0.80;0.80;;;;;;;;;;5441520;26;20266;-42
2024/04/17 11:07:21;;;;;;;1.02;0.88;;;;;;;;;;5438162;26;20307;-43
2024/04/17 11:09:47;;;;;;;0.98;0.88;;;;;;;;;;5444196;26;20602;-43
2024/04/17 11:12:16;;;;;;;3.72;1.00;;;;;;;;;;5446730;26;20639;-40
2024/04/17 11:14:43;;;;;;;4.20;1.00;;;;;;;;;;5451987;26;20303;-39
2024/04/17 11:17:09;;;;;;;2.13;1.08;;;;;;;;;;5454183;26;20274;-41
2024/04/17 11:19:35;;;;;;;1.52;0.90;;;;;;;;;;5449339;26;20526;-40
2024/04/17 11:22:27;;;;;;;7.43;2.00;;;;;;;;;;5449936;26;20274;-44
2024/04/17 11:25:02;;;;;;;2.72;1.80;;;;;;;;;;5454057;26;20223;-38
2024/04/17 11:27:28;;;;;;;4.53;1.70;;;;;;;;;;5455297;26;20321;-38
2024/04/17 11:29:54;;;;;;;3.13;1.27;;;;;;;;;;5450444;26;20460;-37
2024/04/17 11:32:20;;;;;;;7.18;2.20;;;;;;;;;;5448489;26;20308;-38
2024/04/17 11:34:46;;;;;;;7.13;1.67;;;;;;;;;;5457588;26;20274;-38
2024/04/17 11:37:13;;;;;;;5.38;1.80;;;;;;;;;;5450288;26;20227;-38
2024/04/17 11:39:39;;;;;;;5.30;1.77;;;;;;;;;;5458063;26;20547;-38
2024/04/17 11:42:08;;;;;;;3.72;1.63;;;;;;;;;;5456699;26;20219;-37
2024/04/17 11:44:38;;;;;;;5.32;2.05;;;;;;;;;;5448124;26;20240;-37
2024/04/17 11:47:05;;;;;;;5.40;1.50;;;;;;;;;;5448556;26;20328;-37
2024/04/17 11:49:31;;;;;;;3.55;1.60;;;;;;;;;;5451155;26;20586;-38
2024/04/17 11:51:57;;;;;;;5.88;1.30;;;;;;;;;;5457414;26;20265;-38
2024/04/17 11:54:23;;;;;;;8.82;1.95;;;;;;;;;;5457521;26;20270;-38
2024/04/17 11:56:49;;;;;;;3.50;1.45;;;;;;;;;;5449197;26;20522;-38
2024/04/17 11:59:15;;;;;;;3.70;1.10;;;;;;;;;;5456804;26;20235;-38
2024/04/17 12:01:41;;;;;;;4.30;1.45;;;;;;;;;;5455839;26;20274;-37
2024/04/17 12:04:06;;;;;;;2.10;1.10;;;;;;;;;;5454611;26;20227;-38
2024/04/17 12:06:32;;;;;;;4.57;1.48;;;;;;;;;;5439167;26;20229;-38
2024/04/17 12:08:58;;;;;;;5.65;1.63;;;;;;;;;;5441631;26;20224;-38
2024/04/17 12:11:24;;;;;;;1.13;0.93;;;;;;;;;;5447806;26;20332;-38
2024/04/17 12:13:50;;;;;;;3.42;1.83;;;;;;;;;;5446024;26;20298;-38
2024/04/17 12:16:16;;;;;;;2.67;0.90;;;;;;;;;;5439827;26;20224;-38
2024/04/17 12:18:42;;;;;;;2.65;1.10;;;;;;;;;;5439008;26;20333;-38
2024/04/17 12:21:08;;;;;;;1.08;0.90;;;;;;;;;;5442726;26;20553;-38
2024/04/17 12:23:34;;;;;;;0.80;0.80;;;;;;;;;;5439706;26;20317;-38
2024/04/17 12:28:44;;;;;;;3.10;1.00;;;;;;;;;;5439875;26;20266;-38
2024/04/17 12:31:10;;;;;;;4.20;1.20;;;;;;;;;;5445919;26;20587;-38
2024/04/17 12:33:36;;;;;;;2.10;0.93;;;;;;;;;;5433791;26;20314;-38
2024/04/17 12:36:02;;;;;;;6.97;0.80;;;;;;;;;;5439931;26;20451;-38
2024/04/17 12:38:29;;;;;;;8.02;1.13;;;;;;;;;;5443650;26;20286;-38
2024/04/17 12:40:55;;;;;;;2.67;1.10;;;;;;;;;;5441428;26;20708;-38
2024/04/17 12:43:21;;;;;;;3.88;1.35;;;;;;;;;;5437821;26;20240;-38
2024/04/17 12:45:47;;;;;;;3.80;1.50;;;;;;;;;;5446796;26;20330;-37
2024/04/17 12:48:13;;;;;;;2.55;1.10;;;;;;;;;;5456174;26;20517;-38
2024/04/17 12:50:39;;;;;;;20.65;1.40;;;;;;;;;;5450535;26;20269;-38
2024/04/17 12:53:06;;;;;;;8.73;1.73;;;;;;;;;;5453019;26;20219;-38
2024/04/17 12:55:32;;;;;;;4.40;1.25;;;;;;;;;;5450713;26;20283;-38
2024/04/17 12:57:58;;;;;;;7.22;1.73;;;;;;;;;;5453651;26;20231;-38
2024/04/17 13:00:24;;;;;;;5.07;1.63;;;;;;;;;;5455584;26;20223;-38
2024/04/17 13:02:50;;;;;;;2.95;1.45;;;;;;;;;;5454290;26;20216;-38
2024/04/17 13:05:16;;;;;;;3.45;1.45;;;;;;;;;;5455919;26;20266;-38
2024/04/17 13:07:42;;;;;;;3.50;1.90;;;;;;;;;;5453420;26;20444;-38
2024/04/17 13:10:08;;;;;;;3.28;1.92;;;;;;;;;;5451615;26;20528;-38
2024/04/17 13:12:34;;;;;;;2.45;1.40;;;;;;;;;;5453595;26;20231;-38
2024/04/17 13:15:00;;;;;;;1.17;0.80;;;;;;;;;;5456080;26;20269;-38
2024/04/17 13:17:27;;;;;;;1.88;0.80;;;;;;;;;;5455054;26;20605;-38
2024/04/17 13:19:52;;;;;;;5.68;1.20;;;;;;;;;;5427380;26;20232;-38
2024/04/17 13:22:18;;;;;;;3.13;1.50;;;;;;;;;;5448571;26;20269;-38
2024/04/17 13:24:44;;;;;;;2.90;0.88;;;;;;;;;;5451194;26;20324;-38
2024/04/17 13:27:11;;;;;;;0.90;0.70;;;;;;;;;;5443687;26;20440;-38
2024/04/17 13:29:37;;;;;;;3.65;1.02;;;;;;;;;;5442193;26;20587;-38
2024/04/17 13:32:02;;;;;;;1.30;0.82;;;;;;;;;;5435973;26;20275;-38
2024/04/17 13:34:28;;;;;;;1.02;0.85;;;;;;;;;;5455349;26;20220;-38
2024/04/17 13:36:54;;;;;;;1.13;0.73;;;;;;;;;;5454860;26;20526;-38
2024/04/17 13:39:20;;;;;;;0.88;0.88;;;;;;;;;;5451654;26;20278;-38
2024/04/17 13:41:46;;;;;;;2.20;1.17;;;;;;;;;;5437608;26;20254;-38
2024/04/17 13:44:12;;;;;;;1.95;1.10;;;;;;;;;;5436929;26;20274;-38
2024/04/17 13:46:40;;;;;;;1.67;0.93;;;;;;;;;;5442147;26;20312;-38
2024/04/17 13:49:06;;;;;;;2.55;1.10;;;;;;;;;;5443176;26;20232;-38
2024/04/17 13:51:32;;;;;;;2.45;1.10;;;;;;;;;;5444846;26;20219;-38
2024/04/17 13:53:58;;;;;;;1.02;0.80;;;;;;;;;;5444531;26;20642;-38
2024/04/17 13:56:26;;;;;;;1.67;1.38;;;;;;;;;;5444279;26;20235;-38
2024/04/17 13:58:52;;;;;;;1.90;1.13;;;;;;;;;;5443602;26;20229;-38
2024/04/17 14:01:18;;;;;;;0.88;0.85;;;;;;;;;;5443148;26;20244;-38
2024/04/17 14:03:44;;;;;;;2.38;1.17;;;;;;;;;;5437981;26;20499;-38
2024/04/17 14:06:10;;;;;;;1.00;0.77;;;;;;;;;;5444617;26;20223;-38
2024/04/17 14:08:36;;;;;;;0.80;0.80;;;;;;;;;;5436963;26;20317;-38
2024/04/17 14:11:03;;;;;;;1.95;1.00;;;;;;;;;;5440250;26;20267;-38
2024/04/17 14:13:29;;;;;;;0.90;0.75;;;;;;;;;;5439645;26;20228;-38
2024/04/17 14:15:58;;;;;;;1.25;1.08;;;;;;;;;;5447824;26;20225;-38
2024/04/17 14:18:26;;;;;;;0.98;0.98;;;;;;;;;;5453742;26;20223;-38
2024/04/17 14:20:52;;;;;;;0.70;0.70;;;;;;;;;;5441489;26;20271;-38
2024/04/17 14:23:21;;;;;;;0.85;0.85;;;;;;;;;;5449910;26;20235;-38
2024/04/17 14:26:02;;;;;;;1.05;0.70;;;;;;;;;;5441549;26;20287;-38
2024/04/17 14:28:29;;;;;;;0.60;0.57;;;;;;;;;;5442027;26;20223;-38
2024/04/17 14:30:59;;;;;;;1.00;0.80;;;;;;;;;;5446384;26;20262;-38
2024/04/17 14:33:26;;;;;;;1.52;1.00;;;;;;;;;;5440438;26;20424;-38
2024/04/17 14:35:52;;;;;;;1.23;1.00;;;;;;;;;;5451845;26;20228;-38
2024/04/17 14:38:18;;;;;;;1.65;0.70;;;;;;;;;;5447533;26;20661;-38
2024/04/17 14:40:52;;;;;;;1.15;1.05;;;;;;;;;;5442517;26;20269;-38